Denver, Colorado
Current Conditions -  °F | °C
As of 7:58 PM on Tuesday 25 Nov 2014 (Local Time) from KBKF Reporting Station
Broken Clouds Broken Clouds  
Wind Chill: 37°   Ceiling: 22000
Heat Index: 45°   Visibility: 10mi
Dew Point: 20°   Wind: 18mph
Humidity: 38%   Direction: 300°WNW
Pressure: 29.94"   Gusts: 26mph
Location:  39.74°N, 104.99°W
Report Text: KBKF 260258Z 30016G23KT 10SM SCT120 BKN220 07/M07 A2994 RMK AO2A PK WND 30029/05 SLP129 T00701066 53007
Loading
Personal Weather Stations






























Interactive Weather Map New forecast layout! Learn more

10-Day Weather Forecast

Advertisements
Track Severe Weather on mobile